createdAt,value
2019-03-03T00:03:01.193Z,6.86
2019-03-03T00:06:05.592Z,6.85
2019-03-03T00:09:09.925Z,6.94
2019-03-03T00:12:14.217Z,6.97
2019-03-03T00:15:20.977Z,7.19
2019-03-03T00:18:25.361Z,7.21
2019-03-03T00:21:29.701Z,7.20
2019-03-03T00:24:34.085Z,7.18
2019-03-03T00:27:38.377Z,7.23
2019-03-03T00:30:42.853Z,7.27
2019-03-03T00:33:47.255Z,7.31
2019-03-03T00:37:28.654Z,7.43
2019-03-03T00:40:45.596Z,7.51
2019-03-03T00:43:58.283Z,7.48
2019-03-03T00:47:24.469Z,7.61
2019-03-03T00:50:38.379Z,7.62
2019-03-03T00:54:10.543Z,7.84
2019-03-03T00:57:32.348Z,7.79
2019-03-03T01:01:04.915Z,7.92
2019-03-03T01:04:14.900Z,7.96
2019-03-03T01:07:41.167Z,7.98
2019-03-03T01:11:04.400Z,8.19
2019-03-03T01:14:42.888Z,8.21
2019-03-03T01:17:53.313Z,8.46
2019-03-03T01:21:02.015Z,8.48
2019-03-03T01:24:25.581Z,8.63
2019-03-03T01:27:29.870Z,8.71
2019-03-03T01:30:34.174Z,8.79
2019-03-03T01:33:38.542Z,8.94
2019-03-03T01:36:42.914Z,9.05
2019-03-03T01:39:47.309Z,8.97
2019-03-03T01:42:51.610Z,9.20
2019-03-03T01:45:55.928Z,9.08
2019-03-03T01:49:00.240Z,9.11
2019-03-03T01:52:04.546Z,9.11
2019-03-03T01:55:09.794Z,9.26
2019-03-03T01:58:14.227Z,9.18
2019-03-03T02:01:18.535Z,9.15
2019-03-03T02:04:22.854Z,8.97
2019-03-03T02:07:27.137Z,8.97
2019-03-03T02:10:31.425Z,9.14
2019-03-03T02:13:35.724Z,9.03
2019-03-03T02:16:40.048Z,9.03
2019-03-03T02:19:44.332Z,9.02
2019-03-03T02:22:51.605Z,8.92
2019-03-03T02:25:55.914Z,9.01
2019-03-03T02:29:00.227Z,9.11
2019-03-03T02:32:06.406Z,8.97
2019-03-03T02:35:10.786Z,9.09
2019-03-03T02:38:15.298Z,9.15
2019-03-03T02:41:19.714Z,9.02
2019-03-03T02:44:27.099Z,9.15
2019-03-03T02:47:31.407Z,9.07
2019-03-03T02:50:35.910Z,9.18
2019-03-03T02:53:40.173Z,9.13
2019-03-03T02:56:44.475Z,9.06
2019-03-03T02:59:48.783Z,9.23
2019-03-03T03:02:55.029Z,9.20
2019-03-03T03:06:18.367Z,9.05
2019-03-03T03:09:28.869Z,9.03
2019-03-03T03:12:51.572Z,8.98
2019-03-03T03:16:10.874Z,8.87
2019-03-03T03:19:24.625Z,9.00
2019-03-03T03:22:47.875Z,9.00
2019-03-03T03:26:11.021Z,8.99
2019-03-03T03:29:37.169Z,8.97
2019-03-03T03:32:48.250Z,8.78
2019-03-03T03:35:58.625Z,8.70
2019-03-03T03:39:15.546Z,8.69
2019-03-03T03:42:31.380Z,8.62
2019-03-03T03:46:03.655Z,8.68
2019-03-03T03:49:21.483Z,8.72
2019-03-03T03:53:02.945Z,8.60
2019-03-03T03:56:24.541Z,8.81
2019-03-03T03:59:44.122Z,8.68
2019-03-03T04:03:07.957Z,8.71
2019-03-03T04:06:24.787Z,8.63
2019-03-03T04:09:43.217Z,8.64
2019-03-03T04:13:06.571Z,8.63
2019-03-03T04:16:33.016Z,8.66
2019-03-03T04:19:44.697Z,8.64
2019-03-03T04:23:10.487Z,8.56
2019-03-03T04:26:23.016Z,8.56
2019-03-03T04:30:01.829Z,8.60
2019-03-03T04:33:21.052Z,8.74
2019-03-03T04:37:04.062Z,8.62
2019-03-03T04:40:27.368Z,8.72
2019-03-03T04:43:49.325Z,8.74
2019-03-03T04:47:07.397Z,8.67
2019-03-03T04:50:29.518Z,8.65
2019-03-03T04:53:52.920Z,8.65
2019-03-03T04:57:19.367Z,8.78
2019-03-03T05:00:54.818Z,8.72
2019-03-03T05:04:11.470Z,8.73
2019-03-03T05:07:22.473Z,8.86
2019-03-03T05:10:45.865Z,8.77
2019-03-03T05:13:54.478Z,8.74
2019-03-03T05:17:17.753Z,8.74
2019-03-03T05:20:22.391Z,8.84
2019-03-03T05:23:26.818Z,8.71
2019-03-03T05:26:31.122Z,8.80
2019-03-03T05:29:35.871Z,8.75
2019-03-03T05:32:40.697Z,8.84
2019-03-03T05:35:45.262Z,8.65
2019-03-03T05:38:49.733Z,8.64
2019-03-03T05:41:54.250Z,8.80
2019-03-03T05:45:00.501Z,8.64
2019-03-03T05:48:05.749Z,8.69
2019-03-03T05:51:12.545Z,8.62
2019-03-03T05:54:17.012Z,8.58
2019-03-03T05:57:21.686Z,8.58
2019-03-03T06:00:26.143Z,8.62
2019-03-03T06:03:30.732Z,8.57
2019-03-03T06:06:35.112Z,8.47
2019-03-03T06:09:39.629Z,8.49
2019-03-03T06:12:44.097Z,8.50
2019-03-03T06:15:48.675Z,8.62
2019-03-03T06:18:53.394Z,8.54
2019-03-03T06:21:57.751Z,8.49
2019-03-03T06:25:02.321Z,8.62
2019-03-03T06:28:10.017Z,8.54
2019-03-03T06:31:14.569Z,8.54
2019-03-03T06:34:19.029Z,8.52
2019-03-03T06:37:23.419Z,8.56
2019-03-03T06:40:27.847Z,8.61
2019-03-03T06:43:32.198Z,8.68
2019-03-03T06:46:36.552Z,8.74
2019-03-03T06:49:40.884Z,8.71
2019-03-03T06:52:45.316Z,8.66
2019-03-03T06:55:49.923Z,8.69
2019-03-03T06:58:54.598Z,8.72
2019-03-03T07:02:00.760Z,8.71
2019-03-03T07:05:05.764Z,8.62
2019-03-03T07:08:10.150Z,8.61
2019-03-03T07:11:14.542Z,8.64
2019-03-03T07:14:19.152Z,8.60
2019-03-03T07:17:23.584Z,8.60
2019-03-03T07:20:29.340Z,8.57
2019-03-03T07:23:33.788Z,8.51
2019-03-03T07:26:38.102Z,8.46
2019-03-03T07:29:42.534Z,8.53
2019-03-03T07:33:04.834Z,8.39
2019-03-03T07:36:09.476Z,8.36
2019-03-03T07:39:18.609Z,8.30
2019-03-03T07:42:24.393Z,8.35
2019-03-03T07:45:28.736Z,8.28
2019-03-03T07:48:33.056Z,8.26
2019-03-03T07:51:37.367Z,8.22
2019-03-03T07:54:41.745Z,8.23
2019-03-03T07:57:46.969Z,8.20
2019-03-03T08:00:51.331Z,8.19
2019-03-03T08:03:55.776Z,8.17
2019-03-03T08:07:00.113Z,8.18
2019-03-03T08:10:04.904Z,8.20
2019-03-03T08:13:09.735Z,8.19
2019-03-03T08:16:14.147Z,8.20
2019-03-03T08:19:18.437Z,8.18
2019-03-03T08:22:22.791Z,8.30
2019-03-03T08:25:27.166Z,8.25
2019-03-03T08:28:31.585Z,8.29
2019-03-03T08:31:35.873Z,8.40
2019-03-03T08:34:40.410Z,8.46
2019-03-03T08:37:44.725Z,8.49
2019-03-03T08:40:49.260Z,8.46
2019-03-03T08:44:04.436Z,8.49
2019-03-03T08:47:30.875Z,8.51
2019-03-03T08:50:44.361Z,8.53
2019-03-03T08:53:55.870Z,8.63
2019-03-03T08:57:28.486Z,8.80
2019-03-03T09:00:38.801Z,8.67
2019-03-03T09:03:59.700Z,8.73
2019-03-03T09:07:26.235Z,8.97
2019-03-03T09:10:44.194Z,8.95
2019-03-03T09:13:53.944Z,9.06
2019-03-03T09:17:26.587Z,9.05
2019-03-03T09:20:52.953Z,9.08
2019-03-03T09:24:28.458Z,9.14
2019-03-03T09:28:00.856Z,9.21
2019-03-03T09:31:23.412Z,9.12
2019-03-03T09:34:58.906Z,9.17
2019-03-03T09:38:18.118Z,9.13
2019-03-03T09:41:40.232Z,9.17
2019-03-03T09:45:06.529Z,9.26
2019-03-03T09:48:31.604Z,9.47
2019-03-03T09:52:01.778Z,9.40
2019-03-03T09:55:11.546Z,9.43
2019-03-03T09:58:37.768Z,9.53
2019-03-03T10:02:10.499Z,9.54
2019-03-03T10:05:32.807Z,9.55
2019-03-03T10:08:59.152Z,9.64
2019-03-03T10:12:16.839Z,9.70
2019-03-03T10:15:43.408Z,9.80
2019-03-03T10:18:56.036Z,9.74
2019-03-03T10:22:06.520Z,9.77
2019-03-03T10:25:43.114Z,9.78
2019-03-03T10:29:22.276Z,9.84
2019-03-03T10:32:44.323Z,9.94
2019-03-03T10:36:07.952Z,9.93
2019-03-03T10:39:33.845Z,10.16
2019-03-03T10:42:55.976Z,10.06
2019-03-03T10:46:22.334Z,10.12
2019-03-03T10:49:39.039Z,10.26
2019-03-03T10:52:51.857Z,10.20
2019-03-03T10:56:27.284Z,10.10
2019-03-03T10:59:55.111Z,10.37
2019-03-03T11:03:15.519Z,10.10
2019-03-03T11:06:44.784Z,9.92
2019-03-03T11:10:11.327Z,9.85
2019-03-03T11:13:40.702Z,9.62
2019-03-03T11:17:02.767Z,9.39
2019-03-03T11:20:16.630Z,9.33
2019-03-03T11:23:39.049Z,9.26
2019-03-03T11:27:08.877Z,9.19
2019-03-03T11:30:21.910Z,9.11
2019-03-03T11:33:44.492Z,9.06
2019-03-03T11:37:05.191Z,9.02
2019-03-03T11:40:48.283Z,9.10
2019-03-03T11:44:20.600Z,9.15
2019-03-03T11:47:41.583Z,9.18
2019-03-03T11:51:19.943Z,9.18
2019-03-03T11:54:34.665Z,9.10
2019-03-03T11:58:01.121Z,9.17
2019-03-03T12:01:40.295Z,9.24
2019-03-03T12:05:03.030Z,9.27
2019-03-03T12:08:29.798Z,9.54
2019-03-03T12:11:51.913Z,9.44
2019-03-03T12:15:08.077Z,9.49
2019-03-03T12:18:29.344Z,9.49
2019-03-03T12:21:55.653Z,9.65
2019-03-03T12:25:25.204Z,9.50
2019-03-03T12:28:47.419Z,9.46
2019-03-03T12:32:28.876Z,9.38
2019-03-03T12:35:58.454Z,9.36
2019-03-03T12:39:14.262Z,9.42
2019-03-03T12:42:37.534Z,9.43
2019-03-03T12:45:59.889Z,9.43
2019-03-03T12:49:12.579Z,9.39
2019-03-03T12:52:27.079Z,9.52
2019-03-03T12:55:52.154Z,9.50
2019-03-03T12:59:26.079Z,9.41
2019-03-03T13:02:55.661Z,9.41
2019-03-03T13:06:11.903Z,9.50
2019-03-03T13:09:44.663Z,9.43
2019-03-03T13:12:56.154Z,9.36
2019-03-03T13:16:06.625Z,9.35
2019-03-03T13:19:48.787Z,9.30
2019-03-03T13:23:17.593Z,9.29
2019-03-03T13:26:50.566Z,9.29
2019-03-03T13:30:16.728Z,9.29
2019-03-03T13:33:44.331Z,9.23
2019-03-03T13:37:10.696Z,9.24
2019-03-03T13:40:35.042Z,9.29
2019-03-03T13:43:39.356Z,9.26
2019-03-03T13:46:43.785Z,9.29
2019-03-03T13:49:48.088Z,9.41
2019-03-03T13:52:52.401Z,9.30
2019-03-03T13:55:56.736Z,9.28
2019-03-03T13:59:01.060Z,9.26
2019-03-03T14:02:05.767Z,9.37
2019-03-03T14:05:10.544Z,9.21
2019-03-03T14:08:14.976Z,9.28
2019-03-03T14:11:27.757Z,9.33
2019-03-03T14:14:32.212Z,9.47
2019-03-03T14:17:36.522Z,9.39
2019-03-03T14:20:40.843Z,9.34
2019-03-03T14:23:45.143Z,9.36
2019-03-03T14:26:49.479Z,9.36
2019-03-03T14:29:53.828Z,9.49
2019-03-03T14:32:58.619Z,9.50
2019-03-03T14:36:05.807Z,9.37
2019-03-03T14:39:10.498Z,9.44
2019-03-03T14:42:15.120Z,9.24
2019-03-03T14:45:19.966Z,9.50
2019-03-03T14:48:24.301Z,9.34
2019-03-03T14:51:28.706Z,9.29
2019-03-03T14:54:33.140Z,9.44
2019-03-03T14:57:37.479Z,9.49
2019-03-03T15:00:41.844Z,9.38
2019-03-03T15:03:46.150Z,9.35
2019-03-03T15:06:50.836Z,9.73
2019-03-03T15:09:55.129Z,9.49
2019-03-03T15:13:00.084Z,9.42
2019-03-03T15:16:04.641Z,9.43
2019-03-03T15:19:09.060Z,9.40
2019-03-03T15:22:13.438Z,9.41
2019-03-03T15:25:17.865Z,9.55
2019-03-03T15:28:22.379Z,9.47
2019-03-03T15:31:26.813Z,9.58
2019-03-03T15:34:31.449Z,9.61
2019-03-03T15:37:35.806Z,9.61
2019-03-03T15:40:40.108Z,9.61
2019-03-03T15:43:44.802Z,9.66
2019-03-03T15:46:49.148Z,9.54
2019-03-03T15:49:53.676Z,9.68
2019-03-03T15:52:58.044Z,9.54
2019-03-03T15:56:02.462Z,9.17
2019-03-03T15:59:06.945Z,8.93
2019-03-03T16:02:12.455Z,9.11
2019-03-03T16:05:19.620Z,9.12
2019-03-03T16:08:23.995Z,9.10
2019-03-03T16:11:28.316Z,9.10
2019-03-03T16:14:35.507Z,8.85
2019-03-03T16:17:40.167Z,8.83
2019-03-03T16:20:44.610Z,8.79
2019-03-03T16:23:48.994Z,8.88
2019-03-03T16:26:53.559Z,8.90
2019-03-03T16:29:58.084Z,8.84
2019-03-03T16:33:02.475Z,8.71
2019-03-03T16:36:07.313Z,8.68
2019-03-03T16:39:12.290Z,8.74
2019-03-03T16:42:16.966Z,8.58
2019-03-03T16:45:21.801Z,8.44
2019-03-03T16:48:26.455Z,8.59
2019-03-03T16:51:31.104Z,8.46
2019-03-03T16:54:35.707Z,8.56
2019-03-03T16:57:40.366Z,8.54
2019-03-03T17:00:44.803Z,8.54
2019-03-03T17:03:51.075Z,8.45
2019-03-03T17:06:55.555Z,8.46
2019-03-03T17:10:00.261Z,8.46
2019-03-03T17:13:05.046Z,8.40
2019-03-03T17:16:09.368Z,8.44
2019-03-03T17:19:13.897Z,8.47
2019-03-03T17:22:18.252Z,8.31
2019-03-03T17:25:24.190Z,8.27
2019-03-03T17:28:28.600Z,8.09
2019-03-03T17:31:33.191Z,8.25
2019-03-03T17:34:37.732Z,8.28
2019-03-03T17:37:42.125Z,8.31
2019-03-03T17:40:46.512Z,8.25
2019-03-03T17:43:51.000Z,8.18
2019-03-03T17:46:55.497Z,8.13
2019-03-03T17:49:59.958Z,8.19
2019-03-03T17:53:04.609Z,8.20
2019-03-03T17:56:09.318Z,8.16
2019-03-03T17:59:13.885Z,8.07
2019-03-03T18:02:18.727Z,8.02
2019-03-03T18:05:23.635Z,8.05
2019-03-03T18:08:28.350Z,8.14
2019-03-03T18:11:32.978Z,8.03
2019-03-03T18:14:37.435Z,8.11
2019-03-03T18:17:41.869Z,8.15
2019-03-03T18:20:46.402Z,8.04
2019-03-03T18:23:50.910Z,8.07
2019-03-03T18:26:55.438Z,8.06
2019-03-03T18:30:01.881Z,8.13
2019-03-03T18:33:06.335Z,8.14
2019-03-03T18:36:10.731Z,8.08
2019-03-03T18:39:17.476Z,8.06
2019-03-03T18:42:22.089Z,8.06
2019-03-03T18:45:26.815Z,8.12
2019-03-03T18:48:34.352Z,8.02
2019-03-03T18:51:39.083Z,8.05
2019-03-03T18:54:43.824Z,7.97
2019-03-03T18:57:48.597Z,7.85
2019-03-03T19:00:53.220Z,7.80
2019-03-03T19:03:57.773Z,7.82
2019-03-03T19:07:02.340Z,7.84
2019-03-03T19:10:09.184Z,7.78
2019-03-03T19:13:13.802Z,7.77
2019-03-03T19:16:18.276Z,7.81
2019-03-03T19:19:23.025Z,7.84
2019-03-03T19:22:27.768Z,7.78
2019-03-03T19:25:32.587Z,7.77
2019-03-03T19:28:37.351Z,7.82
2019-03-03T19:31:44.924Z,7.82
2019-03-03T19:34:49.637Z,7.87
2019-03-03T19:37:54.525Z,7.88
2019-03-03T19:40:59.359Z,7.86
2019-03-03T19:44:04.666Z,7.96
2019-03-03T19:47:09.583Z,8.02
2019-03-03T19:50:15.100Z,8.06
2019-03-03T19:53:19.830Z,8.02
2019-03-03T19:56:24.831Z,8.01
2019-03-03T19:59:29.886Z,8.06
2019-03-03T20:02:34.969Z,8.04
2019-03-03T20:05:39.895Z,8.10
2019-03-03T20:08:44.845Z,8.11
2019-03-03T20:11:53.730Z,8.16
2019-03-03T20:14:58.662Z,8.33
2019-03-03T20:18:03.540Z,8.45
2019-03-03T20:21:10.932Z,8.57
2019-03-03T20:24:16.055Z,8.83
2019-03-03T20:27:20.934Z,8.89
2019-03-03T20:30:27.171Z,9.20
2019-03-03T20:33:31.817Z,9.36
2019-03-03T20:36:36.725Z,9.31
2019-03-03T20:39:41.759Z,9.28
2019-03-03T20:42:46.690Z,9.42
2019-03-03T20:45:51.466Z,9.47
2019-03-03T20:48:56.272Z,9.37
2019-03-03T20:52:00.973Z,9.43
2019-03-03T20:55:10.947Z,9.51
2019-03-03T20:58:17.578Z,9.43
2019-03-03T21:01:22.200Z,9.62
2019-03-03T21:04:26.773Z,9.48
2019-03-03T21:07:31.527Z,9.47
2019-03-03T21:10:38.575Z,9.46
2019-03-03T21:13:43.234Z,9.43
2019-03-03T21:16:47.962Z,9.46
2019-03-03T21:19:53.084Z,9.45
2019-03-03T21:22:57.578Z,9.51
2019-03-03T21:26:02.138Z,9.54
2019-03-03T21:29:06.652Z,9.59
2019-03-03T21:32:11.134Z,9.54
2019-03-03T21:35:15.666Z,9.64
2019-03-03T21:38:20.249Z,9.64
2019-03-03T21:41:24.627Z,9.65
2019-03-03T21:44:29.144Z,9.68
2019-03-03T21:47:33.622Z,9.69
2019-03-03T21:50:38.119Z,9.68
2019-03-03T21:53:44.278Z,9.69
2019-03-03T21:56:48.648Z,9.88
2019-03-03T21:59:53.160Z,9.92
2019-03-03T22:02:57.792Z,9.99
2019-03-03T22:06:02.508Z,10.04
2019-03-03T22:09:09.440Z,10.06
2019-03-03T22:12:14.906Z,10.01
2019-03-03T22:15:19.320Z,10.12
2019-03-03T22:18:23.682Z,10.21
2019-03-03T22:21:28.277Z,10.29
2019-03-03T22:24:32.733Z,10.28
2019-03-03T22:27:37.288Z,10.29
2019-03-03T22:30:41.776Z,10.27
2019-03-03T22:33:46.498Z,10.31
2019-03-03T22:36:50.978Z,10.23
2019-03-03T22:39:55.636Z,10.24
2019-03-03T22:42:59.984Z,10.20
2019-03-03T22:46:04.476Z,10.22
2019-03-03T22:49:08.924Z,10.42
2019-03-03T22:52:13.301Z,10.26
2019-03-03T22:55:18.293Z,10.42
2019-03-03T22:58:22.897Z,10.34
2019-03-03T23:01:40.495Z,10.35
2019-03-03T23:05:02.044Z,10.47
2019-03-03T23:08:53.691Z,10.38
2019-03-03T23:12:20.216Z,10.46
2019-03-03T23:15:46.185Z,10.39
2019-03-03T23:19:27.374Z,10.41
2019-03-03T23:23:02.874Z,10.25
2019-03-03T23:26:16.308Z,10.28
2019-03-03T23:29:13.790Z,10.24
2019-03-03T23:32:18.173Z,10.13
2019-03-03T23:35:22.641Z,10.01
2019-03-03T23:38:27.020Z,10.01
2019-03-03T23:41:31.428Z,10.06
2019-03-03T23:44:35.896Z,10.05
2019-03-03T23:47:40.300Z,9.99
2019-03-03T23:50:44.822Z,10.00
2019-03-03T23:53:49.464Z,10.18
2019-03-03T23:56:53.828Z,10.10
2019-03-03T23:59:58.209Z,10.15
